Goodrich, MI (48438)

10:40 PM EST on November 28, 2014 (GMT -0500)
Kelbel Weather | Change Station
CLOSE
Current Station
Personal Weather Station
Location: Goodrich, MI
Elevation: 892 ft
Nearby Weather Stations
Active Advisory: Special Statement

Elev 892 ft 42.93 °N, 83.47 °W | Updated 9 minutes ago

Overcast
Overcast
25.2 °F
Feels Like 21 °F
N
3.2
Wind Variable Wind from East

Today
High -- | Low -- °F
--% Chance of Precip.
Yesterday
High -- | Low -- °F
Precip. -- in
7:41 AM 5:01 PM
Waxing Crescent, 47% visible
Pressure 30.12 in
Visibility 9.0 miles
Clouds Mostly Cloudy 4700 ft
Overcast 5500 ft
Windchill 21 °F
Dew Point 22 °F
Humidity 86%
Rainfall 0.00 in
Snow Depth Not available.
UV 0 out of 12
Pollen .10 out of 12
Air Quality Not available.
Flu Activity Not available.
METAR KFNT 290253Z 16006KT 9SM BKN047 OVC055 M02/M06 A3009 RMK AO2 SLP199 60001 T10221061 58011

More Conditions Fewer Conditions

Pressure 30.12 in
Visibility 9.0 miles
Clouds Mostly Cloudy 4700 ft
Overcast 5500 ft
Windchill 21 °F
Dew Point 22 °F
Humidity 86%
Rainfall 0.00 in
Snow Depth Not available.
UV 0 out of 12
Pollen .10 out of 12
Air Quality Not available.
Flu Activity Not available.
METAR KFNT 290253Z 16006KT 9SM BKN047 OVC055 M02/M06 A3009 RMK AO2 SLP199 60001 T10221061 58011

More Conditions Fewer Conditions

10-Day Weather Forecast

Almanac

Astronomy

Nov. 28, 2014 Rise Set
Actual Time
Civil Twilight
Nautical Twilight
Astronomical Twilight
Moon
Length of Visible Light
Length of Day
Tomorrow will be .
, % of the Moon is Illuminated

Today's Extremes

State Highs State Lows

Community

WunderPhotos

Upload Photos

1,774,389 photos uploaded!

WunderBlogs® & News

Nearby

Air Quality

  Air Quality AQ Index Pollutant
Not available.

Snow Depth

Station Depth Elevation

Earthquake Activity

City Distance Mag. Time & Date
Minimum magnitude displayed is 2.5.

Coastal Water Temperatures

Place Temperature

Nearby Weather Stations